createdAt,value
2022-08-12T00:02:47.262Z,2.10
2022-08-12T00:06:09.581Z,2.40
2022-08-12T00:09:30.286Z,2.10
2022-08-12T00:12:50.559Z,2.20
2022-08-12T00:16:11.501Z,2.13
2022-08-12T00:19:32.301Z,2.33
2022-08-12T00:22:53.064Z,2.10
2022-08-12T00:26:23.696Z,2.10
2022-08-12T00:29:47.942Z,1.88
2022-08-12T00:33:11.102Z,2.20
2022-08-12T00:36:35.056Z,2.10
2022-08-12T00:39:57.871Z,2.53
2022-08-12T00:43:00.123Z,2.40
2022-08-12T00:46:20.755Z,2.20
2022-08-12T00:49:24.026Z,2.50
2022-08-12T00:52:25.837Z,2.17
2022-08-12T00:55:27.797Z,2.20
2022-08-12T00:58:33.027Z,2.50
2022-08-12T01:02:02.058Z,2.25
2022-08-12T01:05:25.199Z,2.42
2022-08-12T01:08:49.842Z,2.35
2022-08-12T01:11:52.377Z,2.20
2022-08-12T01:14:54.577Z,2.50
2022-08-12T01:17:56.586Z,2.42
2022-08-12T01:21:30.661Z,2.20
2022-08-12T01:25:06.757Z,2.10
2022-08-12T01:28:13.585Z,2.20
2022-08-12T01:31:17.749Z,2.25
2022-08-12T01:34:35.923Z,2.20
2022-08-12T01:38:00.008Z,2.20
2022-08-12T01:41:03.262Z,2.33
2022-08-12T01:44:06.480Z,2.20
2022-08-12T01:47:25.788Z,2.33
2022-08-12T01:51:06.118Z,2.22
2022-08-12T01:54:12.567Z,2.30
2022-08-12T01:57:58.299Z,2.50
2022-08-12T02:00:58.973Z,2.50
2022-08-12T02:04:41.379Z,2.45
2022-08-12T02:08:20.186Z,2.40
2022-08-12T02:11:29.128Z,2.10
2022-08-12T02:14:57.713Z,2.20
2022-08-12T02:18:13.005Z,2.75
2022-08-12T02:21:36.305Z,2.50
2022-08-12T02:24:40.043Z,2.50
2022-08-12T02:27:45.734Z,2.45
2022-08-12T02:30:47.894Z,2.47
2022-08-12T02:33:49.943Z,2.60
2022-08-12T02:36:55.981Z,2.30
2022-08-12T02:40:03.504Z,2.53
2022-08-12T02:43:20.109Z,2.20
2022-08-12T02:46:34.813Z,2.85
2022-08-12T02:49:44.567Z,2.53
2022-08-12T02:52:48.126Z,2.50
2022-08-12T02:55:49.826Z,2.42
2022-08-12T02:58:51.536Z,2.50
2022-08-12T03:01:56.720Z,2.40
2022-08-12T03:05:01.344Z,2.63
2022-08-12T03:08:04.982Z,2.58
2022-08-12T03:11:23.653Z,2.40
2022-08-12T03:14:29.578Z,2.50
2022-08-12T03:17:36.631Z,2.30
2022-08-12T03:20:40.631Z,2.75
2022-08-12T03:23:45.799Z,2.63
2022-08-12T03:26:48.858Z,2.60
2022-08-12T03:29:52.336Z,2.70
2022-08-12T03:32:56.453Z,2.58
2022-08-12T03:36:01.566Z,2.90
2022-08-12T03:39:12.063Z,3.10
2022-08-12T03:42:37.548Z,2.80
2022-08-12T03:45:57.688Z,3.28
2022-08-12T03:49:17.869Z,3.00
2022-08-12T03:52:38.694Z,3.35
2022-08-12T03:55:59.637Z,2.88
2022-08-12T03:59:22.054Z,2.90
2022-08-12T04:02:25.198Z,2.72
2022-08-12T04:05:54.479Z,3.08
2022-08-12T04:08:53.929Z,2.70
2022-08-12T04:12:14.105Z,3.00
2022-08-12T04:15:19.765Z,2.85
2022-08-12T04:18:21.644Z,3.10
2022-08-12T04:21:25.246Z,3.00
2022-08-12T04:24:27.776Z,3.00
2022-08-12T04:27:31.472Z,3.20
2022-08-12T04:30:33.946Z,3.00
2022-08-12T04:33:37.099Z,2.92
2022-08-12T04:36:40.800Z,2.90
2022-08-12T04:39:44.487Z,2.72
2022-08-12T04:42:46.093Z,2.90
2022-08-12T04:45:49.562Z,3.05
2022-08-12T04:48:52.495Z,2.88
2022-08-12T04:51:59.418Z,2.90
2022-08-12T04:55:01.652Z,2.80
2022-08-12T04:58:03.409Z,3.00
2022-08-12T05:01:05.788Z,2.72
2022-08-12T05:04:09.323Z,2.90
2022-08-12T05:07:11.791Z,2.97
2022-08-12T05:10:13.596Z,3.28
2022-08-12T05:13:45.160Z,2.58
2022-08-12T05:16:46.784Z,2.90
2022-08-12T05:19:48.370Z,2.70
2022-08-12T05:22:56.886Z,2.80
2022-08-12T05:26:01.081Z,3.22
2022-08-12T05:29:03.102Z,3.40
2022-08-12T05:32:07.965Z,3.58
2022-08-12T05:35:10.526Z,3.15
2022-08-12T05:38:34.831Z,2.95
2022-08-12T05:41:37.909Z,3.03
2022-08-12T05:44:39.545Z,2.75
2022-08-12T05:47:52.915Z,2.47
2022-08-12T05:50:56.703Z,2.90
2022-08-12T05:54:00.178Z,2.90
2022-08-12T05:57:01.709Z,2.58
2022-08-12T06:00:05.059Z,2.63
2022-08-12T06:03:19.302Z,2.63
2022-08-12T06:06:23.839Z,2.92
2022-08-12T06:09:28.745Z,2.87
2022-08-12T06:12:30.765Z,3.00
2022-08-12T06:15:37.828Z,3.05
2022-08-12T06:18:40.046Z,2.80
2022-08-12T06:21:42.748Z,2.92
2022-08-12T06:24:44.356Z,2.80
2022-08-12T06:28:05.847Z,2.80
2022-08-12T06:31:26.832Z,2.70
2022-08-12T06:35:23.332Z,2.40
2022-08-12T06:37:57.015Z,2.60
2022-08-12T06:41:19.574Z,2.40
2022-08-12T06:44:22.747Z,2.70
2022-08-12T06:47:24.396Z,2.40
2022-08-12T06:50:26.795Z,2.63
2022-08-12T06:53:34.112Z,2.50
2022-08-12T06:59:58.584Z,2.45
2022-08-12T07:03:22.812Z,2.65
2022-08-12T07:06:23.988Z,2.75
2022-08-12T07:10:01.583Z,2.20
2022-08-12T07:12:49.010Z,2.50
2022-08-12T07:15:55.783Z,2.63
2022-08-12T07:18:58.960Z,2.33
2022-08-12T07:22:06.438Z,2.40
2022-08-12T07:25:27.378Z,2.20
2022-08-12T07:28:33.715Z,2.47
2022-08-12T07:31:36.917Z,2.47
2022-08-12T07:34:39.401Z,2.45
2022-08-12T07:37:42.362Z,2.30
2022-08-12T07:40:44.080Z,2.33
2022-08-12T07:43:51.986Z,2.40
2022-08-12T07:46:53.578Z,2.28
2022-08-12T07:50:05.199Z,2.30
2022-08-12T07:53:08.090Z,2.30
2022-08-12T07:56:10.909Z,2.00
2022-08-12T07:59:12.783Z,2.20
2022-08-12T08:02:14.416Z,2.30
2022-08-12T08:05:16.324Z,2.08
2022-08-12T08:08:28.620Z,2.10
2022-08-12T08:11:49.278Z,1.90
2022-08-12T08:14:52.849Z,2.00
2022-08-12T08:18:02.908Z,1.90
2022-08-12T08:21:05.153Z,2.08
2022-08-12T08:24:15.790Z,2.22
2022-08-12T08:27:17.553Z,2.30
2022-08-12T08:30:19.247Z,2.25
2022-08-12T08:33:23.464Z,2.08
2022-08-12T08:36:43.868Z,2.17
2022-08-12T08:39:47.137Z,2.08
2022-08-12T08:42:51.351Z,2.00
2022-08-12T08:45:55.785Z,1.98
2022-08-12T08:48:59.562Z,2.13
2022-08-12T08:52:02.992Z,1.83
2022-08-12T08:55:05.010Z,1.85
2022-08-12T08:58:08.723Z,1.80
2022-08-12T09:01:11.673Z,1.70
2022-08-12T09:05:12.245Z,2.00
2022-08-12T09:12:06.767Z,1.70
2022-08-12T09:14:52.699Z,2.08
2022-08-12T09:17:57.314Z,2.00
2022-08-12T09:21:01.977Z,1.90
2022-08-12T09:24:07.442Z,1.90
2022-08-12T09:27:16.463Z,1.90
2022-08-12T09:30:41.213Z,1.80
2022-08-12T09:34:31.065Z,1.85
2022-08-12T09:37:19.205Z,1.60
2022-08-12T09:40:57.962Z,1.90
2022-08-12T09:44:06.105Z,1.70
2022-08-12T09:47:10.504Z,1.85
2022-08-12T09:50:20.460Z,1.70
2022-08-12T09:53:36.522Z,1.80
2022-08-12T09:56:59.309Z,1.77
2022-08-12T10:00:15.655Z,1.80
2022-08-12T10:03:31.796Z,2.00
2022-08-12T10:06:36.673Z,1.63
2022-08-12T10:09:58.341Z,1.70
2022-08-12T10:13:33.850Z,1.65
2022-08-12T10:16:43.841Z,1.67
2022-08-12T10:19:51.552Z,1.50
2022-08-12T10:23:01.776Z,1.60
2022-08-12T10:26:38.755Z,1.60
2022-08-12T10:30:03.243Z,1.60
2022-08-12T10:33:18.649Z,1.50
2022-08-12T10:36:21.191Z,1.60
2022-08-12T10:40:00.858Z,1.75
2022-08-12T10:43:20.654Z,1.55
2022-08-12T10:46:22.429Z,1.65
2022-08-12T10:50:02.958Z,1.60
2022-08-12T10:52:56.240Z,1.60
2022-08-12T10:55:57.952Z,1.50
2022-08-12T10:59:05.488Z,1.60
2022-08-12T11:04:27.369Z,1.83
2022-08-12T11:07:09.012Z,1.80
2022-08-12T11:09:00.521Z,1.60
2022-08-12T11:12:35.370Z,2.20
2022-08-12T11:16:02.882Z,1.70
2022-08-12T11:18:55.512Z,1.80
2022-08-12T11:22:01.284Z,1.70
2022-08-12T11:25:10.486Z,1.85
2022-08-12T11:28:14.326Z,1.60
2022-08-12T11:31:17.628Z,1.50
2022-08-12T11:34:53.452Z,1.60
2022-08-12T11:37:59.213Z,1.40
2022-08-12T11:41:04.003Z,1.52
2022-08-12T11:44:35.375Z,1.67
2022-08-12T11:47:30.581Z,1.50
2022-08-12T11:50:32.626Z,1.50
2022-08-12T11:53:59.440Z,1.65
2022-08-12T11:57:01.955Z,1.50
2022-08-12T12:02:00.913Z,1.60
2022-08-12T12:03:45.984Z,1.90
2022-08-12T12:06:52.904Z,1.50
2022-08-12T12:09:55.737Z,1.40
2022-08-12T12:12:57.636Z,1.40
2022-08-12T12:16:00.162Z,1.40
2022-08-12T12:19:04.005Z,1.40
2022-08-12T12:22:05.718Z,1.40
2022-08-12T12:25:12.955Z,1.80
2022-08-12T12:28:37.046Z,1.60
2022-08-12T12:32:10.692Z,1.73
2022-08-12T12:35:13.848Z,1.60
2022-08-12T12:38:25.156Z,1.40
2022-08-12T12:42:41.794Z,1.83
2022-08-12T12:44:53.562Z,1.60
2022-08-12T12:48:07.901Z,1.80
2022-08-12T12:51:48.221Z,1.42
2022-08-12T12:54:52.661Z,1.60
2022-08-12T12:58:00.070Z,1.40
2022-08-12T13:01:04.621Z,1.50
2022-08-12T13:04:25.561Z,1.30
2022-08-12T13:07:48.872Z,1.60
2022-08-12T13:10:52.159Z,1.50
2022-08-12T13:14:08.704Z,1.38
2022-08-12T13:17:14.729Z,1.50
2022-08-12T13:20:37.467Z,1.42
2022-08-12T13:23:45.889Z,1.52
2022-08-12T13:26:49.690Z,1.60
2022-08-12T13:29:52.028Z,1.60
2022-08-12T13:32:58.908Z,1.50
2022-08-12T13:36:05.958Z,1.42
2022-08-12T13:39:11.836Z,1.70
2022-08-12T13:42:14.852Z,1.60
2022-08-12T13:45:16.872Z,1.50
2022-08-12T13:48:19.865Z,1.40
2022-08-12T13:51:24.366Z,1.60
2022-08-12T13:58:22.807Z,1.40
2022-08-12T14:01:28.438Z,1.50
2022-08-12T14:04:30.077Z,1.50
2022-08-12T14:07:48.719Z,1.50
2022-08-12T14:10:53.440Z,1.25
2022-08-12T14:17:13.384Z,1.30
2022-08-12T14:20:21.711Z,1.55
2022-08-12T14:24:04.879Z,1.45
2022-08-12T14:27:01.885Z,1.45
2022-08-12T14:30:15.575Z,1.50
2022-08-12T14:33:44.477Z,1.40
2022-08-12T14:36:46.408Z,1.27
2022-08-12T14:39:50.685Z,1.60
2022-08-12T14:42:52.415Z,1.33
2022-08-12T14:45:56.402Z,1.40
2022-08-12T14:48:58.074Z,1.77
2022-08-12T14:53:26.743Z,1.40
2022-08-12T14:59:23.484Z,1.48
2022-08-12T15:02:28.497Z,1.27
2022-08-12T15:06:05.543Z,1.45
2022-08-12T15:08:59.753Z,1.30
2022-08-12T15:12:04.348Z,1.33
2022-08-12T15:15:06.817Z,1.30
2022-08-12T15:18:10.171Z,1.30
2022-08-12T15:21:11.878Z,1.40
2022-08-12T15:24:13.564Z,1.40
2022-08-12T15:27:22.318Z,1.30
2022-08-12T15:30:42.671Z,1.30
2022-08-12T15:33:47.534Z,1.20
2022-08-12T15:36:54.572Z,1.45
2022-08-12T15:40:01.114Z,1.10
2022-08-12T15:46:15.277Z,1.25
2022-08-12T15:49:19.148Z,1.30
2022-08-12T15:52:27.266Z,1.25
2022-08-12T15:55:33.509Z,1.30
2022-08-12T15:58:42.852Z,1.00
2022-08-12T16:01:44.501Z,1.17
2022-08-12T16:04:50.477Z,1.20
2022-08-12T16:07:52.422Z,0.90
2022-08-12T16:10:54.617Z,1.10
2022-08-12T16:13:56.268Z,1.10
2022-08-12T16:17:01.921Z,1.08
2022-08-12T16:20:06.265Z,1.00
2022-08-12T16:23:26.630Z,0.80
2022-08-12T16:26:36.642Z,1.10
2022-08-12T16:29:52.954Z,1.00
2022-08-12T16:32:58.371Z,1.08
2022-08-12T16:36:00.570Z,1.00
2022-08-12T16:39:03.823Z,0.90
2022-08-12T16:42:05.857Z,0.95
2022-08-12T16:45:09.862Z,1.15
2022-08-12T16:48:33.822Z,1.00
2022-08-12T16:51:40.382Z,0.93
2022-08-12T16:54:44.338Z,0.95
2022-08-12T16:57:49.325Z,0.90
2022-08-12T17:00:52.674Z,1.00
2022-08-12T17:04:08.229Z,1.02
2022-08-12T17:07:16.660Z,0.90
2022-08-12T17:10:35.896Z,0.90
2022-08-12T17:13:42.873Z,0.70
2022-08-12T17:16:55.858Z,0.98
2022-08-12T17:20:36.598Z,0.88
2022-08-12T17:23:52.835Z,0.90
2022-08-12T17:26:57.178Z,0.90
2022-08-12T17:30:03.438Z,0.93
2022-08-12T17:36:15.681Z,1.00
2022-08-12T17:39:17.718Z,1.00
2022-08-12T17:42:32.217Z,0.93
2022-08-12T17:45:42.190Z,0.77
2022-08-12T17:48:54.926Z,0.90
2022-08-12T17:52:02.369Z,1.00
2022-08-12T17:55:07.242Z,0.98
2022-08-12T17:58:35.769Z,0.90
2022-08-12T18:01:45.287Z,1.00
2022-08-12T18:05:09.581Z,0.98
2022-08-12T18:08:11.115Z,1.00
2022-08-12T18:12:04.664Z,1.00
2022-08-12T18:15:08.745Z,0.98
2022-08-12T18:18:16.699Z,1.23
2022-08-12T18:21:20.994Z,1.10
2022-08-12T18:24:29.435Z,1.00
2022-08-12T18:27:44.814Z,1.00
2022-08-12T18:30:53.292Z,1.10
2022-08-12T18:34:02.959Z,1.00
2022-08-12T18:37:26.591Z,0.90
2022-08-12T18:40:46.156Z,0.98
2022-08-12T18:43:59.128Z,0.98
2022-08-12T18:47:06.385Z,0.95
2022-08-12T18:50:13.372Z,1.00
2022-08-12T18:54:05.502Z,0.95
2022-08-12T18:56:39.473Z,1.00
2022-08-12T19:00:00.683Z,0.90
2022-08-12T19:03:06.249Z,1.00
2022-08-12T19:06:27.582Z,1.00
2022-08-12T19:09:39.230Z,1.10
2022-08-12T19:13:22.990Z,0.98
2022-08-12T19:16:27.000Z,0.90
2022-08-12T19:19:37.499Z,1.00
2022-08-12T19:22:44.067Z,1.00
2022-08-12T19:26:03.184Z,1.25
2022-08-12T19:29:07.598Z,1.00
2022-08-12T19:32:13.053Z,1.00
2022-08-12T19:38:37.845Z,1.08
2022-08-12T19:42:00.890Z,1.38
2022-08-12T19:45:12.305Z,1.00
2022-08-12T19:48:18.775Z,1.00
2022-08-12T19:54:43.986Z,1.00
2022-08-12T19:58:01.315Z,1.02
2022-08-12T20:01:10.819Z,1.10
2022-08-12T20:04:15.665Z,1.23
2022-08-12T20:07:24.214Z,0.95
2022-08-12T20:10:37.127Z,1.00
2022-08-12T20:13:39.230Z,1.10
2022-08-12T20:16:53.272Z,1.35
2022-08-12T20:20:17.844Z,1.10
2022-08-12T20:23:23.543Z,1.25
2022-08-12T20:26:25.244Z,1.10
2022-08-12T20:29:35.560Z,1.20
2022-08-12T20:32:57.247Z,1.17
2022-08-12T20:36:13.375Z,1.10
2022-08-12T20:39:52.467Z,1.10
2022-08-12T20:42:46.247Z,1.10
2022-08-12T20:45:57.454Z,1.20
2022-08-12T20:49:14.332Z,1.17
2022-08-12T20:52:19.185Z,1.10
2022-08-12T20:55:21.015Z,1.20
2022-08-12T20:58:23.298Z,1.10
2022-08-12T21:01:36.647Z,1.10
2022-08-12T21:05:16.118Z,1.08
2022-08-12T21:08:19.726Z,1.20
2022-08-12T21:11:24.548Z,1.10
2022-08-12T21:14:39.590Z,1.20
2022-08-12T21:18:11.170Z,1.10
2022-08-12T21:21:46.881Z,1.35
2022-08-12T21:24:46.570Z,1.27
2022-08-12T21:27:58.870Z,1.10
2022-08-12T21:32:34.395Z,1.25
2022-08-12T21:34:29.451Z,1.30
2022-08-12T21:37:31.819Z,1.23
2022-08-12T21:40:51.830Z,1.20
2022-08-12T21:43:55.107Z,1.30
2022-08-12T21:47:18.271Z,1.20
2022-08-12T21:50:22.268Z,1.27
2022-08-12T21:53:31.696Z,1.10
2022-08-12T21:56:55.812Z,1.27
2022-08-12T21:59:57.482Z,1.20
2022-08-12T22:03:17.717Z,1.20
2022-08-12T22:06:43.912Z,1.30
2022-08-12T22:09:46.194Z,1.20
2022-08-12T22:12:48.034Z,1.20
2022-08-12T22:15:52.578Z,1.30
2022-08-12T22:18:57.433Z,1.45
2022-08-12T22:22:01.219Z,1.50
2022-08-12T22:25:06.654Z,1.30
2022-08-12T22:28:26.984Z,1.40
2022-08-12T22:31:40.596Z,1.20
2022-08-12T22:34:42.197Z,1.40
2022-08-12T22:37:46.276Z,1.25
2022-08-12T22:40:49.754Z,1.30
2022-08-12T22:44:10.395Z,1.30
2022-08-12T22:47:54.273Z,1.50
2022-08-12T22:50:59.410Z,1.35
2022-08-12T22:54:01.262Z,1.27
2022-08-12T22:57:03.509Z,1.35
2022-08-12T23:00:10.126Z,1.30
2022-08-12T23:03:48.490Z,1.35
2022-08-12T23:06:54.561Z,1.30
2022-08-12T23:09:56.194Z,1.20
2022-08-12T23:13:16.445Z,1.30
2022-08-12T23:16:29.358Z,1.30
2022-08-12T23:19:36.096Z,1.45
2022-08-12T23:22:40.312Z,1.45
2022-08-12T23:25:54.811Z,1.33
2022-08-12T23:29:26.133Z,1.20
2022-08-12T23:32:35.633Z,1.40
2022-08-12T23:35:53.437Z,1.35
2022-08-12T23:39:03.736Z,1.50
2022-08-12T23:42:17.079Z,1.30
2022-08-12T23:45:31.178Z,1.30
2022-08-12T23:48:34.164Z,1.30
2022-08-12T23:51:36.655Z,1.40
2022-08-12T23:54:44.979Z,1.45
2022-08-12T23:58:17.409Z,1.50
